sensor_id;sensor_type;location;lat;lon;timestamp;P1;durP1;ratioP1;P2;durP2;ratioP2
9763;SDS011;4921;43.214;27.936;2023-05-19T00:01:21;5.40;;;4.90;;
9763;SDS011;4921;43.214;27.936;2023-05-19T00:03:49;8.03;;;5.20;;
9763;SDS011;4921;43.214;27.936;2023-05-19T00:06:19;6.67;;;4.67;;
9763;SDS011;4921;43.214;27.936;2023-05-19T00:08:49;7.93;;;5.10;;
9763;SDS011;4921;43.214;27.936;2023-05-19T00:11:22;8.03;;;5.23;;
9763;SDS011;4921;43.214;27.936;2023-05-19T00:13:50;7.80;;;5.50;;
9763;SDS011;4921;43.214;27.936;2023-05-19T00:16:18;13.63;;;5.47;;
9763;SDS011;4921;43.214;27.936;2023-05-19T00:18:46;9.23;;;5.53;;
9763;SDS011;4921;43.214;27.936;2023-05-19T00:21:13;6.13;;;4.93;;
9763;SDS011;4921;43.214;27.936;2023-05-19T00:23:40;6.87;;;5.30;;
9763;SDS011;4921;43.214;27.936;2023-05-19T00:26:08;9.03;;;6.03;;
9763;SDS011;4921;43.214;27.936;2023-05-19T00:28:37;11.50;;;5.50;;
9763;SDS011;4921;43.214;27.936;2023-05-19T00:31:04;7.57;;;5.60;;
9763;SDS011;4921;43.214;27.936;2023-05-19T00:33:31;13.60;;;5.80;;
9763;SDS011;4921;43.214;27.936;2023-05-19T00:35:59;10.07;;;5.80;;
9763;SDS011;4921;43.214;27.936;2023-05-19T00:38:27;6.90;;;5.57;;
9763;SDS011;4921;43.214;27.936;2023-05-19T00:40:54;7.10;;;4.90;;
9763;SDS011;4921;43.214;27.936;2023-05-19T00:43:21;8.27;;;5.13;;
9763;SDS011;4921;43.214;27.936;2023-05-19T00:45:49;9.03;;;5.73;;
9763;SDS011;4921;43.214;27.936;2023-05-19T00:48:16;7.30;;;5.00;;
9763;SDS011;4921;43.214;27.936;2023-05-19T00:50:43;6.13;;;5.10;;
9763;SDS011;4921;43.214;27.936;2023-05-19T00:53:11;8.70;;;5.63;;
9763;SDS011;4921;43.214;27.936;2023-05-19T00:55:40;10.67;;;5.73;;
9763;SDS011;4921;43.214;27.936;2023-05-19T00:58:08;10.07;;;5.43;;
9763;SDS011;4921;43.214;27.936;2023-05-19T01:00:35;6.43;;;5.10;;
9763;SDS011;4921;43.214;27.936;2023-05-19T01:03:04;8.17;;;5.70;;
9763;SDS011;4921;43.214;27.936;2023-05-19T01:05:35;8.97;;;5.23;;
9763;SDS011;4921;43.214;27.936;2023-05-19T01:08:05;9.80;;;5.60;;
9763;SDS011;4921;43.214;27.936;2023-05-19T01:10:33;5.80;;;5.00;;
9763;SDS011;4921;43.214;27.936;2023-05-19T01:13:00;10.20;;;5.30;;
9763;SDS011;4921;43.214;27.936;2023-05-19T01:15:28;7.07;;;4.83;;
9763;SDS011;4921;43.214;27.936;2023-05-19T01:18:00;7.43;;;5.47;;
9763;SDS011;4921;43.214;27.936;2023-05-19T01:20:37;5.97;;;4.70;;
9763;SDS011;4921;43.214;27.936;2023-05-19T01:23:23;6.93;;;5.00;;
9763;SDS011;4921;43.214;27.936;2023-05-19T01:26:08;10.93;;;5.80;;
9763;SDS011;4921;43.214;27.936;2023-05-19T01:31:57;10.80;;;6.17;;
9763;SDS011;4921;43.214;27.936;2023-05-19T01:34:25;9.23;;;6.37;;
9763;SDS011;4921;43.214;27.936;2023-05-19T01:36:53;11.67;;;6.53;;
9763;SDS011;4921;43.214;27.936;2023-05-19T01:39:21;8.80;;;6.17;;
9763;SDS011;4921;43.214;27.936;2023-05-19T01:41:48;12.17;;;7.13;;
9763;SDS011;4921;43.214;27.936;2023-05-19T01:44:17;11.40;;;7.07;;
9763;SDS011;4921;43.214;27.936;2023-05-19T01:46:46;10.13;;;6.70;;
9763;SDS011;4921;43.214;27.936;2023-05-19T01:49:15;13.27;;;7.27;;
9763;SDS011;4921;43.214;27.936;2023-05-19T01:51:42;14.90;;;6.90;;
9763;SDS011;4921;43.214;27.936;2023-05-19T01:54:09;13.73;;;7.80;;
9763;SDS011;4921;43.214;27.936;2023-05-19T01:56:39;12.97;;;8.47;;
9763;SDS011;4921;43.214;27.936;2023-05-19T01:59:15;14.67;;;7.93;;
9763;SDS011;4921;43.214;27.936;2023-05-19T02:01:53;13.13;;;8.13;;
9763;SDS011;4921;43.214;27.936;2023-05-19T02:04:28;10.67;;;8.10;;
9763;SDS011;4921;43.214;27.936;2023-05-19T02:07:08;13.10;;;8.37;;
9763;SDS011;4921;43.214;27.936;2023-05-19T02:09:49;15.63;;;8.93;;
9763;SDS011;4921;43.214;27.936;2023-05-19T02:12:19;20.90;;;9.50;;
9763;SDS011;4921;43.214;27.936;2023-05-19T02:14:54;15.33;;;9.33;;
9763;SDS011;4921;43.214;27.936;2023-05-19T02:17:29;14.67;;;9.60;;
9763;SDS011;4921;43.214;27.936;2023-05-19T02:20:01;13.50;;;9.30;;
9763;SDS011;4921;43.214;27.936;2023-05-19T02:22:29;14.33;;;9.00;;
9763;SDS011;4921;43.214;27.936;2023-05-19T02:24:56;14.03;;;9.30;;
9763;SDS011;4921;43.214;27.936;2023-05-19T02:27:23;14.27;;;9.77;;
9763;SDS011;4921;43.214;27.936;2023-05-19T02:29:51;14.53;;;9.13;;
9763;SDS011;4921;43.214;27.936;2023-05-19T02:32:19;13.77;;;10.40;;
9763;SDS011;4921;43.214;27.936;2023-05-19T02:34:46;11.60;;;9.47;;
9763;SDS011;4921;43.214;27.936;2023-05-19T02:37:14;12.67;;;9.80;;
9763;SDS011;4921;43.214;27.936;2023-05-19T02:39:41;13.83;;;10.07;;
9763;SDS011;4921;43.214;27.936;2023-05-19T02:42:09;13.40;;;9.73;;
9763;SDS011;4921;43.214;27.936;2023-05-19T02:44:36;15.90;;;10.17;;
9763;SDS011;4921;43.214;27.936;2023-05-19T02:47:03;12.17;;;9.90;;
9763;SDS011;4921;43.214;27.936;2023-05-19T02:49:30;15.17;;;10.40;;
9763;SDS011;4921;43.214;27.936;2023-05-19T02:52:00;13.63;;;10.20;;
9763;SDS011;4921;43.214;27.936;2023-05-19T02:54:29;14.07;;;10.63;;
9763;SDS011;4921;43.214;27.936;2023-05-19T02:56:56;18.27;;;9.67;;
9763;SDS011;4921;43.214;27.936;2023-05-19T02:59:23;17.47;;;10.00;;
9763;SDS011;4921;43.214;27.936;2023-05-19T03:01:53;14.30;;;10.17;;
9763;SDS011;4921;43.214;27.936;2023-05-19T03:04:21;13.83;;;10.20;;
9763;SDS011;4921;43.214;27.936;2023-05-19T03:06:48;12.33;;;9.60;;
9763;SDS011;4921;43.214;27.936;2023-05-19T03:09:15;13.07;;;9.17;;
9763;SDS011;4921;43.214;27.936;2023-05-19T03:11:43;17.27;;;9.50;;
9763;SDS011;4921;43.214;27.936;2023-05-19T03:14:10;16.13;;;9.57;;
9763;SDS011;4921;43.214;27.936;2023-05-19T03:16:37;14.53;;;10.27;;
9763;SDS011;4921;43.214;27.936;2023-05-19T03:19:05;13.87;;;10.10;;
9763;SDS011;4921;43.214;27.936;2023-05-19T03:21:32;14.37;;;9.87;;
9763;SDS011;4921;43.214;27.936;2023-05-19T03:23:59;10.67;;;8.10;;
9763;SDS011;4921;43.214;27.936;2023-05-19T03:26:26;11.33;;;9.23;;
9763;SDS011;4921;43.214;27.936;2023-05-19T03:28:55;11.33;;;9.33;;
9763;SDS011;4921;43.214;27.936;2023-05-19T03:31:22;14.33;;;9.50;;
9763;SDS011;4921;43.214;27.936;2023-05-19T03:33:50;13.33;;;9.30;;
9763;SDS011;4921;43.214;27.936;2023-05-19T03:36:17;10.13;;;8.50;;
9763;SDS011;4921;43.214;27.936;2023-05-19T03:38:46;12.03;;;9.00;;
9763;SDS011;4921;43.214;27.936;2023-05-19T03:41:13;13.47;;;9.20;;
9763;SDS011;4921;43.214;27.936;2023-05-19T03:43:40;11.20;;;8.93;;
9763;SDS011;4921;43.214;27.936;2023-05-19T03:46:08;14.50;;;8.50;;
9763;SDS011;4921;43.214;27.936;2023-05-19T03:48:35;9.80;;;8.80;;
9763;SDS011;4921;43.214;27.936;2023-05-19T03:51:02;13.50;;;8.87;;
9763;SDS011;4921;43.214;27.936;2023-05-19T03:53:29;10.67;;;9.20;;
9763;SDS011;4921;43.214;27.936;2023-05-19T03:55:56;10.93;;;8.70;;
9763;SDS011;4921;43.214;27.936;2023-05-19T03:58:24;15.23;;;8.33;;
9763;SDS011;4921;43.214;27.936;2023-05-19T04:00:51;12.90;;;8.17;;
9763;SDS011;4921;43.214;27.936;2023-05-19T04:03:20;9.80;;;8.27;;
9763;SDS011;4921;43.214;27.936;2023-05-19T04:05:46;10.20;;;7.97;;
9763;SDS011;4921;43.214;27.936;2023-05-19T04:08:13;14.73;;;8.10;;
9763;SDS011;4921;43.214;27.936;2023-05-19T04:10:40;10.90;;;8.00;;
9763;SDS011;4921;43.214;27.936;2023-05-19T04:13:07;10.17;;;8.20;;
9763;SDS011;4921;43.214;27.936;2023-05-19T04:15:35;10.43;;;8.23;;
9763;SDS011;4921;43.214;27.936;2023-05-19T04:18:02;14.17;;;8.73;;
9763;SDS011;4921;43.214;27.936;2023-05-19T04:20:31;8.20;;;7.40;;
9763;SDS011;4921;43.214;27.936;2023-05-19T04:22:57;11.97;;;8.07;;
9763;SDS011;4921;43.214;27.936;2023-05-19T04:25:24;13.20;;;8.50;;
9763;SDS011;4921;43.214;27.936;2023-05-19T04:27:52;8.97;;;7.30;;
9763;SDS011;4921;43.214;27.936;2023-05-19T04:30:21;9.43;;;7.83;;
9763;SDS011;4921;43.214;27.936;2023-05-19T04:32:49;9.20;;;7.70;;
9763;SDS011;4921;43.214;27.936;2023-05-19T04:35:16;8.33;;;7.13;;
9763;SDS011;4921;43.214;27.936;2023-05-19T04:37:44;11.17;;;7.93;;
9763;SDS011;4921;43.214;27.936;2023-05-19T04:40:12;8.57;;;7.37;;
9763;SDS011;4921;43.214;27.936;2023-05-19T04:42:40;11.63;;;7.17;;
9763;SDS011;4921;43.214;27.936;2023-05-19T04:45:09;12.70;;;8.00;;
9763;SDS011;4921;43.214;27.936;2023-05-19T04:47:41;10.03;;;7.50;;
9763;SDS011;4921;43.214;27.936;2023-05-19T04:50:08;10.77;;;7.77;;
9763;SDS011;4921;43.214;27.936;2023-05-19T04:52:36;8.77;;;6.70;;
9763;SDS011;4921;43.214;27.936;2023-05-19T04:55:05;10.20;;;5.50;;
9763;SDS011;4921;43.214;27.936;2023-05-19T04:57:32;7.73;;;5.77;;
9763;SDS011;4921;43.214;27.936;2023-05-19T04:59:59;9.63;;;7.00;;
9763;SDS011;4921;43.214;27.936;2023-05-19T05:02:26;10.50;;;6.93;;
9763;SDS011;4921;43.214;27.936;2023-05-19T05:04:53;9.43;;;6.77;;
9763;SDS011;4921;43.214;27.936;2023-05-19T05:07:20;14.73;;;7.27;;
9763;SDS011;4921;43.214;27.936;2023-05-19T05:09:47;8.13;;;6.40;;
9763;SDS011;4921;43.214;27.936;2023-05-19T05:12:16;8.27;;;7.47;;
9763;SDS011;4921;43.214;27.936;2023-05-19T05:14:44;10.70;;;7.90;;
9763;SDS011;4921;43.214;27.936;2023-05-19T05:17:12;7.77;;;6.90;;
9763;SDS011;4921;43.214;27.936;2023-05-19T05:19:40;11.70;;;7.50;;
9763;SDS011;4921;43.214;27.936;2023-05-19T05:22:07;8.67;;;6.90;;
9763;SDS011;4921;43.214;27.936;2023-05-19T05:24:35;11.80;;;7.37;;
9763;SDS011;4921;43.214;27.936;2023-05-19T05:27:03;10.27;;;7.07;;
9763;SDS011;4921;43.214;27.936;2023-05-19T05:29:33;10.80;;;8.03;;
9763;SDS011;4921;43.214;27.936;2023-05-19T05:32:00;9.93;;;7.10;;
9763;SDS011;4921;43.214;27.936;2023-05-19T05:34:27;7.30;;;6.20;;
9763;SDS011;4921;43.214;27.936;2023-05-19T05:36:54;9.63;;;7.27;;
9763;SDS011;4921;43.214;27.936;2023-05-19T05:39:22;9.60;;;7.73;;
9763;SDS011;4921;43.214;27.936;2023-05-19T05:41:48;8.20;;;7.13;;
9763;SDS011;4921;43.214;27.936;2023-05-19T05:44:15;9.87;;;7.73;;
9763;SDS011;4921;43.214;27.936;2023-05-19T05:46:44;12.07;;;7.83;;
9763;SDS011;4921;43.214;27.936;2023-05-19T05:49:12;10.67;;;7.27;;
9763;SDS011;4921;43.214;27.936;2023-05-19T05:51:39;7.83;;;7.00;;
9763;SDS011;4921;43.214;27.936;2023-05-19T05:54:06;12.73;;;6.50;;
9763;SDS011;4921;43.214;27.936;2023-05-19T05:56:37;7.83;;;7.03;;
9763;SDS011;4921;43.214;27.936;2023-05-19T05:59:05;9.80;;;6.40;;
9763;SDS011;4921;43.214;27.936;2023-05-19T06:01:32;7.97;;;6.93;;
9763;SDS011;4921;43.214;27.936;2023-05-19T06:04:01;9.77;;;6.90;;
9763;SDS011;4921;43.214;27.936;2023-05-19T06:06:28;8.13;;;6.63;;
9763;SDS011;4921;43.214;27.936;2023-05-19T06:08:55;10.00;;;6.77;;
9763;SDS011;4921;43.214;27.936;2023-05-19T06:11:22;11.53;;;6.67;;
9763;SDS011;4921;43.214;27.936;2023-05-19T06:13:49;8.43;;;6.43;;
9763;SDS011;4921;43.214;27.936;2023-05-19T06:16:16;8.50;;;7.27;;
9763;SDS011;4921;43.214;27.936;2023-05-19T06:18:43;8.50;;;6.73;;
9763;SDS011;4921;43.214;27.936;2023-05-19T06:21:11;14.20;;;6.80;;
9763;SDS011;4921;43.214;27.936;2023-05-19T06:23:39;9.50;;;7.23;;
9763;SDS011;4921;43.214;27.936;2023-05-19T06:26:06;10.27;;;7.50;;
9763;SDS011;4921;43.214;27.936;2023-05-19T06:28:33;7.47;;;6.67;;
9763;SDS011;4921;43.214;27.936;2023-05-19T06:31:00;9.13;;;6.90;;
9763;SDS011;4921;43.214;27.936;2023-05-19T06:33:27;10.10;;;7.07;;
9763;SDS011;4921;43.214;27.936;2023-05-19T06:35:54;6.77;;;6.17;;
9763;SDS011;4921;43.214;27.936;2023-05-19T06:38:22;7.37;;;6.60;;
9763;SDS011;4921;43.214;27.936;2023-05-19T06:40:49;8.03;;;6.70;;
9763;SDS011;4921;43.214;27.936;2023-05-19T06:43:16;10.23;;;6.80;;
9763;SDS011;4921;43.214;27.936;2023-05-19T06:45:43;10.47;;;7.43;;
9763;SDS011;4921;43.214;27.936;2023-05-19T06:48:10;9.63;;;6.73;;
9763;SDS011;4921;43.214;27.936;2023-05-19T06:50:37;11.40;;;7.43;;
9763;SDS011;4921;43.214;27.936;2023-05-19T06:53:04;11.13;;;7.47;;
9763;SDS011;4921;43.214;27.936;2023-05-19T06:55:35;11.53;;;7.43;;
9763;SDS011;4921;43.214;27.936;2023-05-19T06:58:01;9.27;;;6.87;;
9763;SDS011;4921;43.214;27.936;2023-05-19T07:00:29;12.10;;;7.83;;
9763;SDS011;4921;43.214;27.936;2023-05-19T07:02:55;15.53;;;7.40;;
9763;SDS011;4921;43.214;27.936;2023-05-19T07:05:23;10.47;;;7.97;;
9763;SDS011;4921;43.214;27.936;2023-05-19T07:07:50;11.20;;;7.40;;
9763;SDS011;4921;43.214;27.936;2023-05-19T07:10:16;10.27;;;7.33;;
9763;SDS011;4921;43.214;27.936;2023-05-19T07:12:46;10.60;;;7.30;;
9763;SDS011;4921;43.214;27.936;2023-05-19T07:15:13;10.97;;;7.50;;
9763;SDS011;4921;43.214;27.936;2023-05-19T07:17:40;9.20;;;7.57;;
9763;SDS011;4921;43.214;27.936;2023-05-19T07:20:08;12.67;;;7.57;;
9763;SDS011;4921;43.214;27.936;2023-05-19T07:22:35;11.00;;;8.10;;
9763;SDS011;4921;43.214;27.936;2023-05-19T07:25:03;12.23;;;7.73;;
9763;SDS011;4921;43.214;27.936;2023-05-19T07:27:31;12.40;;;8.30;;
9763;SDS011;4921;43.214;27.936;2023-05-19T07:29:59;12.43;;;8.43;;
9763;SDS011;4921;43.214;27.936;2023-05-19T07:32:26;14.33;;;8.27;;
9763;SDS011;4921;43.214;27.936;2023-05-19T07:34:53;12.50;;;7.70;;
9763;SDS011;4921;43.214;27.936;2023-05-19T07:37:20;10.23;;;7.77;;
9763;SDS011;4921;43.214;27.936;2023-05-19T07:39:47;10.97;;;8.20;;
9763;SDS011;4921;43.214;27.936;2023-05-19T07:42:14;12.47;;;8.87;;
9763;SDS011;4921;43.214;27.936;2023-05-19T07:44:41;10.30;;;8.87;;
9763;SDS011;4921;43.214;27.936;2023-05-19T07:47:09;11.23;;;8.53;;
9763;SDS011;4921;43.214;27.936;2023-05-19T07:49:36;11.50;;;8.87;;
9763;SDS011;4921;43.214;27.936;2023-05-19T07:52:03;10.50;;;8.63;;
9763;SDS011;4921;43.214;27.936;2023-05-19T07:54:30;14.67;;;8.20;;
9763;SDS011;4921;43.214;27.936;2023-05-19T07:56:57;14.13;;;8.33;;
9763;SDS011;4921;43.214;27.936;2023-05-19T07:59:24;13.50;;;8.90;;
9763;SDS011;4921;43.214;27.936;2023-05-19T08:01:50;11.03;;;9.07;;
9763;SDS011;4921;43.214;27.936;2023-05-19T08:04:19;11.73;;;9.13;;
9763;SDS011;4921;43.214;27.936;2023-05-19T08:06:46;15.03;;;8.93;;
9763;SDS011;4921;43.214;27.936;2023-05-19T08:09:12;11.43;;;8.83;;
9763;SDS011;4921;43.214;27.936;2023-05-19T08:11:39;13.33;;;9.20;;
9763;SDS011;4921;43.214;27.936;2023-05-19T08:14:06;15.60;;;10.07;;
9763;SDS011;4921;43.214;27.936;2023-05-19T08:16:33;12.33;;;9.03;;
9763;SDS011;4921;43.214;27.936;2023-05-19T08:19:00;11.73;;;8.70;;
9763;SDS011;4921;43.214;27.936;2023-05-19T08:21:30;11.77;;;9.30;;
9763;SDS011;4921;43.214;27.936;2023-05-19T08:23:58;15.73;;;10.07;;
9763;SDS011;4921;43.214;27.936;2023-05-19T08:26:25;15.43;;;9.57;;
9763;SDS011;4921;43.214;27.936;2023-05-19T08:28:53;12.03;;;9.60;;
9763;SDS011;4921;43.214;27.936;2023-05-19T08:31:20;13.93;;;9.23;;
9763;SDS011;4921;43.214;27.936;2023-05-19T08:33:47;14.13;;;10.10;;
9763;SDS011;4921;43.214;27.936;2023-05-19T08:36:14;11.30;;;8.93;;
9763;SDS011;4921;43.214;27.936;2023-05-19T08:38:42;17.30;;;9.07;;
9763;SDS011;4921;43.214;27.936;2023-05-19T08:41:09;13.83;;;9.10;;
9763;SDS011;4921;43.214;27.936;2023-05-19T08:43:36;10.20;;;8.33;;
9763;SDS011;4921;43.214;27.936;2023-05-19T08:46:04;13.60;;;9.27;;
9763;SDS011;4921;43.214;27.936;2023-05-19T08:48:32;14.27;;;11.17;;
9763;SDS011;4921;43.214;27.936;2023-05-19T08:51:05;35.20;;;30.33;;
9763;SDS011;4921;43.214;27.936;2023-05-19T08:53:39;22.57;;;18.53;;
9763;SDS011;4921;43.214;27.936;2023-05-19T08:56:13;13.23;;;9.87;;
9763;SDS011;4921;43.214;27.936;2023-05-19T08:58:42;14.50;;;9.93;;
9763;SDS011;4921;43.214;27.936;2023-05-19T09:01:12;19.27;;;10.03;;
9763;SDS011;4921;43.214;27.936;2023-05-19T09:03:41;13.90;;;9.77;;
9763;SDS011;4921;43.214;27.936;2023-05-19T09:06:09;12.00;;;9.53;;
9763;SDS011;4921;43.214;27.936;2023-05-19T09:08:38;13.47;;;9.63;;
9763;SDS011;4921;43.214;27.936;2023-05-19T09:11:06;10.70;;;9.30;;
9763;SDS011;4921;43.214;27.936;2023-05-19T09:13:34;15.37;;;9.90;;
9763;SDS011;4921;43.214;27.936;2023-05-19T09:16:02;15.90;;;10.20;;
9763;SDS011;4921;43.214;27.936;2023-05-19T09:18:29;13.57;;;9.97;;
9763;SDS011;4921;43.214;27.936;2023-05-19T09:20:57;11.63;;;9.80;;
9763;SDS011;4921;43.214;27.936;2023-05-19T09:23:27;13.63;;;10.00;;
9763;SDS011;4921;43.214;27.936;2023-05-19T09:25:55;16.77;;;9.30;;
9763;SDS011;4921;43.214;27.936;2023-05-19T09:28:24;13.63;;;9.40;;
9763;SDS011;4921;43.214;27.936;2023-05-19T09:30:58;13.37;;;10.53;;
9763;SDS011;4921;43.214;27.936;2023-05-19T09:33:26;15.10;;;8.67;;
9763;SDS011;4921;43.214;27.936;2023-05-19T09:35:53;11.70;;;9.13;;
9763;SDS011;4921;43.214;27.936;2023-05-19T09:38:22;11.50;;;9.50;;
9763;SDS011;4921;43.214;27.936;2023-05-19T09:40:49;11.47;;;8.57;;
9763;SDS011;4921;43.214;27.936;2023-05-19T09:43:17;10.30;;;9.00;;
9763;SDS011;4921;43.214;27.936;2023-05-19T09:45:47;12.53;;;8.60;;
9763;SDS011;4921;43.214;27.936;2023-05-19T09:48:14;12.93;;;9.30;;
9763;SDS011;4921;43.214;27.936;2023-05-19T09:50:41;9.73;;;8.73;;
9763;SDS011;4921;43.214;27.936;2023-05-19T09:53:10;13.77;;;9.10;;
9763;SDS011;4921;43.214;27.936;2023-05-19T09:55:39;12.20;;;9.67;;
9763;SDS011;4921;43.214;27.936;2023-05-19T09:58:07;12.10;;;8.30;;
9763;SDS011;4921;43.214;27.936;2023-05-19T10:00:34;12.23;;;8.43;;
9763;SDS011;4921;43.214;27.936;2023-05-19T10:03:04;11.20;;;9.40;;
9763;SDS011;4921;43.214;27.936;2023-05-19T10:05:32;14.07;;;8.63;;
9763;SDS011;4921;43.214;27.936;2023-05-19T10:08:00;12.90;;;8.23;;
9763;SDS011;4921;43.214;27.936;2023-05-19T10:10:31;14.00;;;8.57;;
9763;SDS011;4921;43.214;27.936;2023-05-19T10:13:01;9.93;;;8.13;;
9763;SDS011;4921;43.214;27.936;2023-05-19T10:15:29;9.50;;;8.33;;
9763;SDS011;4921;43.214;27.936;2023-05-19T10:17:56;9.50;;;7.13;;
9763;SDS011;4921;43.214;27.936;2023-05-19T10:20:26;8.63;;;7.07;;
9763;SDS011;4921;43.214;27.936;2023-05-19T10:22:53;11.80;;;7.90;;
9763;SDS011;4921;43.214;27.936;2023-05-19T10:25:19;11.67;;;7.37;;
9763;SDS011;4921;43.214;27.936;2023-05-19T10:27:48;8.67;;;7.40;;
9763;SDS011;4921;43.214;27.936;2023-05-19T10:30:20;10.33;;;7.60;;
9763;SDS011;4921;43.214;27.936;2023-05-19T10:32:52;8.27;;;7.47;;
9763;SDS011;4921;43.214;27.936;2023-05-19T10:35:39;10.67;;;7.13;;
9763;SDS011;4921;43.214;27.936;2023-05-19T10:38:20;11.20;;;8.07;;
9763;SDS011;4921;43.214;27.936;2023-05-19T10:40:56;11.70;;;7.57;;
9763;SDS011;4921;43.214;27.936;2023-05-19T10:43:32;10.93;;;6.80;;
9763;SDS011;4921;43.214;27.936;2023-05-19T10:46:04;11.97;;;6.60;;
9763;SDS011;4921;43.214;27.936;2023-05-19T10:48:32;9.77;;;7.17;;
9763;SDS011;4921;43.214;27.936;2023-05-19T10:51:01;11.80;;;6.87;;
9763;SDS011;4921;43.214;27.936;2023-05-19T10:53:29;10.90;;;7.30;;
9763;SDS011;4921;43.214;27.936;2023-05-19T10:55:58;11.20;;;7.17;;
9763;SDS011;4921;43.214;27.936;2023-05-19T10:58:48;9.00;;;7.30;;
9763;SDS011;4921;43.214;27.936;2023-05-19T11:01:16;9.97;;;7.27;;
9763;SDS011;4921;43.214;27.936;2023-05-19T11:03:45;9.10;;;6.67;;
9763;SDS011;4921;43.214;27.936;2023-05-19T11:06:18;9.77;;;6.90;;
9763;SDS011;4921;43.214;27.936;2023-05-19T11:08:45;9.70;;;7.40;;
9763;SDS011;4921;43.214;27.936;2023-05-19T11:11:13;13.07;;;7.40;;
9763;SDS011;4921;43.214;27.936;2023-05-19T11:13:42;9.37;;;7.20;;
9763;SDS011;4921;43.214;27.936;2023-05-19T11:16:30;9.27;;;6.60;;
9763;SDS011;4921;43.214;27.936;2023-05-19T11:18:57;12.63;;;7.53;;
9763;SDS011;4921;43.214;27.936;2023-05-19T11:24:37;13.83;;;7.47;;
9763;SDS011;4921;43.214;27.936;2023-05-19T11:27:19;8.73;;;7.03;;
9763;SDS011;4921;43.214;27.936;2023-05-19T11:29:50;9.93;;;7.50;;
9763;SDS011;4921;43.214;27.936;2023-05-19T11:32:18;12.07;;;7.50;;
9763;SDS011;4921;43.214;27.936;2023-05-19T11:34:46;10.03;;;6.77;;
9763;SDS011;4921;43.214;27.936;2023-05-19T11:37:14;10.00;;;7.53;;
9763;SDS011;4921;43.214;27.936;2023-05-19T11:39:42;10.63;;;7.47;;
9763;SDS011;4921;43.214;27.936;2023-05-19T11:42:11;14.40;;;8.53;;
9763;SDS011;4921;43.214;27.936;2023-05-19T11:44:38;9.67;;;7.90;;
9763;SDS011;4921;43.214;27.936;2023-05-19T11:47:06;13.37;;;8.53;;
9763;SDS011;4921;43.214;27.936;2023-05-19T11:49:34;11.00;;;8.00;;
9763;SDS011;4921;43.214;27.936;2023-05-19T11:52:01;14.77;;;8.20;;
9763;SDS011;4921;43.214;27.936;2023-05-19T11:54:28;12.67;;;8.43;;
9763;SDS011;4921;43.214;27.936;2023-05-19T11:57:00;11.30;;;7.90;;
9763;SDS011;4921;43.214;27.936;2023-05-19T11:59:30;10.13;;;8.50;;
9763;SDS011;4921;43.214;27.936;2023-05-19T12:02:01;12.27;;;8.70;;
9763;SDS011;4921;43.214;27.936;2023-05-19T12:04:39;10.60;;;7.47;;
9763;SDS011;4921;43.214;27.936;2023-05-19T12:07:06;13.23;;;8.37;;
9763;SDS011;4921;43.214;27.936;2023-05-19T12:09:33;10.03;;;8.70;;
9763;SDS011;4921;43.214;27.936;2023-05-19T12:12:02;9.93;;;8.10;;
9763;SDS011;4921;43.214;27.936;2023-05-19T12:14:30;13.93;;;8.50;;
9763;SDS011;4921;43.214;27.936;2023-05-19T12:16:57;9.37;;;8.30;;
9763;SDS011;4921;43.214;27.936;2023-05-19T12:19:24;9.40;;;7.70;;
9763;SDS011;4921;43.214;27.936;2023-05-19T12:21:51;8.47;;;7.57;;
9763;SDS011;4921;43.214;27.936;2023-05-19T12:24:19;10.63;;;7.83;;
9763;SDS011;4921;43.214;27.936;2023-05-19T12:26:47;13.37;;;7.40;;
9763;SDS011;4921;43.214;27.936;2023-05-19T12:29:15;9.37;;;6.63;;
9763;SDS011;4921;43.214;27.936;2023-05-19T12:31:45;10.47;;;6.67;;
9763;SDS011;4921;43.214;27.936;2023-05-19T12:34:13;10.43;;;6.93;;
9763;SDS011;4921;43.214;27.936;2023-05-19T12:36:41;12.97;;;6.83;;
9763;SDS011;4921;43.214;27.936;2023-05-19T12:39:08;13.53;;;6.80;;
9763;SDS011;4921;43.214;27.936;2023-05-19T12:41:35;11.03;;;6.63;;
9763;SDS011;4921;43.214;27.936;2023-05-19T12:44:12;6.93;;;5.73;;
9763;SDS011;4921;43.214;27.936;2023-05-19T12:46:41;8.43;;;5.90;;
9763;SDS011;4921;43.214;27.936;2023-05-19T12:49:09;9.50;;;5.13;;
9763;SDS011;4921;43.214;27.936;2023-05-19T12:51:36;8.00;;;5.23;;
9763;SDS011;4921;43.214;27.936;2023-05-19T12:54:03;11.07;;;6.13;;
9763;SDS011;4921;43.214;27.936;2023-05-19T12:56:30;11.27;;;5.60;;
9763;SDS011;4921;43.214;27.936;2023-05-19T12:58:58;6.87;;;4.63;;
9763;SDS011;4921;43.214;27.936;2023-05-19T13:01:27;8.27;;;4.57;;
9763;SDS011;4921;43.214;27.936;2023-05-19T13:03:56;11.93;;;5.20;;
9763;SDS011;4921;43.214;27.936;2023-05-19T13:06:25;8.20;;;4.97;;
9763;SDS011;4921;43.214;27.936;2023-05-19T13:08:52;11.27;;;5.30;;
9763;SDS011;4921;43.214;27.936;2023-05-19T13:11:19;6.13;;;5.30;;
9763;SDS011;4921;43.214;27.936;2023-05-19T13:13:45;8.10;;;4.50;;
9763;SDS011;4921;43.214;27.936;2023-05-19T13:16:12;6.70;;;5.10;;
9763;SDS011;4921;43.214;27.936;2023-05-19T13:18:39;5.80;;;5.20;;
9763;SDS011;4921;43.214;27.936;2023-05-19T13:21:07;9.47;;;4.77;;
9763;SDS011;4921;43.214;27.936;2023-05-19T13:23:35;9.83;;;4.83;;
9763;SDS011;4921;43.214;27.936;2023-05-19T13:26:02;5.50;;;4.57;;
9763;SDS011;4921;43.214;27.936;2023-05-19T13:28:30;7.20;;;4.77;;
9763;SDS011;4921;43.214;27.936;2023-05-19T13:30:57;8.57;;;5.27;;
9763;SDS011;4921;43.214;27.936;2023-05-19T13:33:24;10.00;;;5.50;;
9763;SDS011;4921;43.214;27.936;2023-05-19T13:35:51;8.83;;;4.70;;
9763;SDS011;4921;43.214;27.936;2023-05-19T13:38:20;6.53;;;5.20;;
9763;SDS011;4921;43.214;27.936;2023-05-19T13:40:47;11.70;;;5.27;;
9763;SDS011;4921;43.214;27.936;2023-05-19T13:43:14;7.57;;;4.93;;
9763;SDS011;4921;43.214;27.936;2023-05-19T13:45:41;7.03;;;4.60;;
9763;SDS011;4921;43.214;27.936;2023-05-19T13:48:08;6.07;;;4.90;;
9763;SDS011;4921;43.214;27.936;2023-05-19T13:50:36;6.30;;;4.57;;
9763;SDS011;4921;43.214;27.936;2023-05-19T13:53:03;5.10;;;4.40;;
9763;SDS011;4921;43.214;27.936;2023-05-19T13:55:31;8.00;;;4.67;;
9763;SDS011;4921;43.214;27.936;2023-05-19T13:57:58;6.37;;;4.80;;
9763;SDS011;4921;43.214;27.936;2023-05-19T14:00:25;5.50;;;4.70;;
9763;SDS011;4921;43.214;27.936;2023-05-19T14:02:52;7.30;;;5.10;;
9763;SDS011;4921;43.214;27.936;2023-05-19T14:05:19;8.27;;;4.87;;
9763;SDS011;4921;43.214;27.936;2023-05-19T14:07:46;8.40;;;5.07;;
9763;SDS011;4921;43.214;27.936;2023-05-19T14:10:13;6.77;;;4.90;;
9763;SDS011;4921;43.214;27.936;2023-05-19T14:12:41;7.63;;;4.90;;
9763;SDS011;4921;43.214;27.936;2023-05-19T14:15:08;8.43;;;4.33;;
9763;SDS011;4921;43.214;27.936;2023-05-19T14:17:36;7.60;;;4.77;;
9763;SDS011;4921;43.214;27.936;2023-05-19T14:20:03;8.37;;;4.47;;
9763;SDS011;4921;43.214;27.936;2023-05-19T14:22:31;10.37;;;5.00;;
9763;SDS011;4921;43.214;27.936;2023-05-19T14:24:58;7.83;;;5.33;;
9763;SDS011;4921;43.214;27.936;2023-05-19T14:27:25;7.60;;;4.53;;
9763;SDS011;4921;43.214;27.936;2023-05-19T14:29:53;5.53;;;5.03;;
9763;SDS011;4921;43.214;27.936;2023-05-19T14:32:20;7.47;;;4.40;;
9763;SDS011;4921;43.214;27.936;2023-05-19T14:34:47;5.73;;;4.37;;
9763;SDS011;4921;43.214;27.936;2023-05-19T14:37:17;8.60;;;5.03;;
9763;SDS011;4921;43.214;27.936;2023-05-19T14:39:43;5.70;;;5.00;;
9763;SDS011;4921;43.214;27.936;2023-05-19T14:42:10;7.93;;;5.00;;
9763;SDS011;4921;43.214;27.936;2023-05-19T14:44:37;4.50;;;4.10;;
9763;SDS011;4921;43.214;27.936;2023-05-19T14:47:06;6.77;;;4.77;;
9763;SDS011;4921;43.214;27.936;2023-05-19T14:49:35;8.03;;;5.10;;
9763;SDS011;4921;43.214;27.936;2023-05-19T14:52:02;8.07;;;5.10;;
9763;SDS011;4921;43.214;27.936;2023-05-19T14:54:29;8.87;;;5.37;;
9763;SDS011;4921;43.214;27.936;2023-05-19T14:56:56;8.77;;;5.30;;
9763;SDS011;4921;43.214;27.936;2023-05-19T14:59:23;9.70;;;5.53;;
9763;SDS011;4921;43.214;27.936;2023-05-19T15:01:50;6.23;;;4.80;;
9763;SDS011;4921;43.214;27.936;2023-05-19T15:04:18;7.33;;;5.20;;
9763;SDS011;4921;43.214;27.936;2023-05-19T15:06:45;6.80;;;5.17;;